createdAt,value
2018-05-10T00:02:06.710Z,8.73
2018-05-10T00:04:34.222Z,8.05
2018-05-10T00:07:01.749Z,7.85
2018-05-10T00:09:29.298Z,8.80
2018-05-10T00:11:56.889Z,8.02
2018-05-10T00:14:24.453Z,8.50
2018-05-10T00:16:52.623Z,8.77
2018-05-10T00:19:20.148Z,8.70
2018-05-10T00:21:48.303Z,7.80
2018-05-10T00:24:16.661Z,8.25
2018-05-10T00:26:44.111Z,8.60
2018-05-10T00:29:11.613Z,9.73
2018-05-10T00:31:39.127Z,8.75
2018-05-10T00:34:06.634Z,9.30
2018-05-10T00:36:34.143Z,8.35
2018-05-10T00:39:01.651Z,9.02
2018-05-10T00:41:32.941Z,9.10
2018-05-10T00:44:00.503Z,8.93
2018-05-10T00:46:28.039Z,8.27
2018-05-10T00:48:55.547Z,9.35
2018-05-10T00:51:23.838Z,9.27
2018-05-10T00:53:52.106Z,9.38
2018-05-10T00:56:20.387Z,9.35
2018-05-10T00:58:48.671Z,10.38
2018-05-10T01:01:16.945Z,10.70
2018-05-10T01:03:45.272Z,10.77
2018-05-10T01:06:12.772Z,11.57
2018-05-10T01:08:41.063Z,10.98
2018-05-10T01:11:09.345Z,11.75
2018-05-10T01:13:36.857Z,11.02
2018-05-10T01:16:04.355Z,11.00
2018-05-10T01:18:33.204Z,10.93
2018-05-10T01:21:00.713Z,10.50
2018-05-10T01:23:28.348Z,10.07
2018-05-10T01:25:55.845Z,9.98
2018-05-10T01:28:23.365Z,9.90
2018-05-10T01:30:50.897Z,10.15
2018-05-10T01:33:18.402Z,9.90
2018-05-10T01:35:58.464Z,9.98
2018-05-10T01:38:26.017Z,9.90
2018-05-10T01:40:54.298Z,9.43
2018-05-10T01:43:22.558Z,9.27
2018-05-10T01:45:50.833Z,10.60
2018-05-10T01:48:19.097Z,10.80
2018-05-10T01:50:46.599Z,9.70
2018-05-10T01:53:14.098Z,10.25
2018-05-10T01:55:41.618Z,10.68
2018-05-10T01:58:09.130Z,10.35
2018-05-10T02:00:36.649Z,10.68
2018-05-10T02:03:04.145Z,10.27
2018-05-10T02:05:31.666Z,10.57
2018-05-10T02:07:59.457Z,11.65
2018-05-10T02:10:26.976Z,10.40
2018-05-10T02:12:54.491Z,10.73
2018-05-10T02:15:22.003Z,10.93
2018-05-10T02:17:49.521Z,11.55
2018-05-10T02:20:17.792Z,11.25
2018-05-10T02:22:45.308Z,11.20
2018-05-10T02:25:12.822Z,11.25
2018-05-10T02:27:41.105Z,12.63
2018-05-10T02:30:09.372Z,11.90
2018-05-10T02:32:37.670Z,12.15
2018-05-10T02:35:05.170Z,12.25
2018-05-10T02:37:32.671Z,12.55
2018-05-10T02:40:00.950Z,13.77
2018-05-10T02:42:29.218Z,12.98
2018-05-10T02:44:57.544Z,13.90
2018-05-10T02:47:25.778Z,12.57
2018-05-10T02:49:54.058Z,13.40
2018-05-10T02:52:22.573Z,12.80
2018-05-10T02:54:50.122Z,13.00
2018-05-10T02:57:17.642Z,12.65
2018-05-10T02:59:45.153Z,12.73
2018-05-10T03:02:12.653Z,13.02
2018-05-10T03:04:40.175Z,13.27
2018-05-10T03:07:07.685Z,13.02
2018-05-10T03:09:35.189Z,13.82
2018-05-10T03:12:02.712Z,13.77
2018-05-10T03:14:30.990Z,13.45
2018-05-10T03:16:59.489Z,13.35
2018-05-10T03:19:26.992Z,13.02
2018-05-10T03:21:54.505Z,12.90
2018-05-10T03:24:22.000Z,13.25
2018-05-10T03:26:49.537Z,12.73
2018-05-10T03:29:17.059Z,12.95
2018-05-10T03:31:45.688Z,12.93
2018-05-10T03:34:13.469Z,12.82
2018-05-10T03:36:41.108Z,12.65
2018-05-10T03:39:08.654Z,13.23
2018-05-10T03:41:36.177Z,12.75
2018-05-10T03:44:03.701Z,12.88
2018-05-10T03:46:31.316Z,13.43
2018-05-10T03:48:59.504Z,12.63
2018-05-10T03:51:27.786Z,11.90
2018-05-10T03:53:55.297Z,13.27
2018-05-10T03:56:22.825Z,13.68
2018-05-10T03:58:50.378Z,12.90
2018-05-10T04:01:17.887Z,14.52
2018-05-10T04:03:57.421Z,13.57
2018-05-10T04:06:36.752Z,13.02
2018-05-10T04:09:16.182Z,12.95
2018-05-10T04:11:43.684Z,13.80
2018-05-10T04:14:11.960Z,13.95
2018-05-10T04:16:40.230Z,13.80
2018-05-10T04:19:08.534Z,13.60
2018-05-10T04:21:36.046Z,14.70
2018-05-10T04:24:03.577Z,13.55
2018-05-10T04:26:31.070Z,13.73
2018-05-10T04:28:58.623Z,14.30
2018-05-10T04:31:26.157Z,13.40
2018-05-10T04:33:57.760Z,13.88
2018-05-10T04:36:26.188Z,14.23
2018-05-10T04:38:53.745Z,14.13
2018-05-10T04:41:21.327Z,15.05
2018-05-10T04:43:52.877Z,14.27
2018-05-10T04:46:20.949Z,13.20
2018-05-10T04:48:48.450Z,14.70
2018-05-10T04:51:16.753Z,15.05
2018-05-10T04:53:48.478Z,14.85
2018-05-10T04:56:16.772Z,14.95
2018-05-10T04:58:45.045Z,13.88
2018-05-10T05:01:13.326Z,13.02
2018-05-10T05:03:41.612Z,13.65
2018-05-10T05:06:09.118Z,13.35
2018-05-10T05:08:36.642Z,13.68
2018-05-10T05:11:04.154Z,12.95
2018-05-10T05:13:31.781Z,12.60
2018-05-10T05:15:59.329Z,13.50
2018-05-10T05:18:26.893Z,13.02
2018-05-10T05:20:54.552Z,12.35
2018-05-10T05:23:22.148Z,11.50
2018-05-10T05:25:50.394Z,10.77
2018-05-10T05:28:17.953Z,11.10
2018-05-10T05:30:45.498Z,11.20
2018-05-10T05:33:13.069Z,11.50
2018-05-10T05:35:41.272Z,10.45
2018-05-10T05:38:08.791Z,10.27
2018-05-10T05:40:36.318Z,10.60
2018-05-10T05:43:09.006Z,10.82
2018-05-10T05:45:36.618Z,10.80
2018-05-10T06:01:04.971Z,9.55
2018-05-10T06:03:32.771Z,10.05
2018-05-10T06:06:00.309Z,8.73
2018-05-10T06:08:27.847Z,9.93
2018-05-10T06:10:55.346Z,8.18
2018-05-10T06:13:22.885Z,9.43
2018-05-10T06:15:50.572Z,12.52
2018-05-10T06:18:17.966Z,10.48
2018-05-10T06:20:45.467Z,9.27
2018-05-10T06:23:13.148Z,8.88
2018-05-10T06:25:40.727Z,9.73
2018-05-10T06:28:09.016Z,8.73
2018-05-10T06:30:37.309Z,8.27
2018-05-10T06:33:08.645Z,8.88
2018-05-10T06:35:36.965Z,8.68
2018-05-10T06:38:04.630Z,9.35
2018-05-10T06:40:36.761Z,9.15
2018-05-10T06:43:04.278Z,8.85
2018-05-10T06:45:31.797Z,9.07
2018-05-10T06:47:59.301Z,9.57
2018-05-10T06:50:26.843Z,9.40
2018-05-10T06:52:54.336Z,9.32
2018-05-10T06:55:22.653Z,9.20
2018-05-10T06:57:50.253Z,8.43
2018-05-10T07:00:17.808Z,8.95
2018-05-10T07:02:46.030Z,8.77
2018-05-10T07:05:13.654Z,8.90
2018-05-10T07:07:41.161Z,8.43
2018-05-10T07:10:08.673Z,8.40
2018-05-10T07:12:36.181Z,8.15
2018-05-10T07:16:53.078Z,7.62
2018-05-10T07:19:21.491Z,8.07
2018-05-10T07:21:49.777Z,8.23
2018-05-10T07:24:17.301Z,8.23
2018-05-10T07:39:44.866Z,8.30
2018-05-10T07:42:12.436Z,8.15
2018-05-10T07:44:40.555Z,9.13
2018-05-10T07:47:08.753Z,8.48
2018-05-10T07:49:37.071Z,8.65
2018-05-10T07:52:04.625Z,7.40
2018-05-10T07:54:32.149Z,7.03
2018-05-10T07:57:00.449Z,7.50
2018-05-10T07:59:27.953Z,6.95
2018-05-10T08:01:55.780Z,6.60
2018-05-10T08:04:24.271Z,6.97
2018-05-10T08:06:51.789Z,5.87
2018-05-10T08:09:20.205Z,6.40
2018-05-10T08:11:47.768Z,6.62
2018-05-10T08:14:15.364Z,5.80
2018-05-10T08:16:47.026Z,6.40
2018-05-10T08:19:14.537Z,5.28
2018-05-10T08:21:42.120Z,5.80
2018-05-10T08:24:09.785Z,6.50
2018-05-10T08:26:37.259Z,6.45
2018-05-10T08:29:04.854Z,5.75
2018-05-10T08:31:33.135Z,6.47
2018-05-10T08:34:03.159Z,6.40
2018-05-10T08:36:31.520Z,6.87
2018-05-10T08:38:59.130Z,7.03
2018-05-10T08:41:27.702Z,7.50
2018-05-10T08:43:55.830Z,7.90
2018-05-10T08:46:23.383Z,6.87
2018-05-10T08:48:50.883Z,6.70
2018-05-10T08:51:18.400Z,6.65
2018-05-10T08:53:45.889Z,7.10
2018-05-10T08:56:14.191Z,7.40
2018-05-10T08:58:41.834Z,6.82
2018-05-10T09:01:09.471Z,7.28
2018-05-10T09:03:37.657Z,8.05
2018-05-10T09:06:05.975Z,7.87
2018-05-10T09:08:33.483Z,7.57
2018-05-10T09:11:00.993Z,7.53
2018-05-10T09:13:28.502Z,7.85
2018-05-10T09:15:56.788Z,6.97
2018-05-10T09:18:25.054Z,7.32
2018-05-10T09:20:52.560Z,7.20
2018-05-10T09:23:20.079Z,6.90
2018-05-10T09:25:48.348Z,7.00
2018-05-10T09:28:15.894Z,7.00
2018-05-10T09:30:43.473Z,6.43
2018-05-10T09:33:11.751Z,6.20
2018-05-10T09:35:40.652Z,7.20
2018-05-10T09:38:09.039Z,14.68
2018-05-10T09:40:36.598Z,13.57
2018-05-10T09:43:05.629Z,17.95
2018-05-10T09:45:33.138Z,18.70
2018-05-10T09:48:02.385Z,18.62
2018-05-10T10:03:38.550Z,32.38
2018-05-10T10:06:06.101Z,32.95
2018-05-10T10:08:37.621Z,36.38
2018-05-10T10:11:05.131Z,35.80
2018-05-10T10:13:32.699Z,39.20
2018-05-10T10:16:00.898Z,37.45
2018-05-10T10:18:29.271Z,37.83
2018-05-10T10:20:57.565Z,41.58
2018-05-10T10:23:25.861Z,41.08
2018-05-10T10:25:53.639Z,45.53
2018-05-10T10:28:25.426Z,50.10
2018-05-10T10:30:53.043Z,48.08
2018-05-10T10:33:20.608Z,43.15
2018-05-10T10:35:48.129Z,43.17
2018-05-10T10:38:17.088Z,44.80
2018-05-10T10:40:45.325Z,45.80
2018-05-10T10:43:12.827Z,47.62
2018-05-10T10:45:40.387Z,43.33
2018-05-10T11:01:17.691Z,44.50
2018-05-10T11:03:46.103Z,47.70
2018-05-10T11:06:13.649Z,48.20
2018-05-10T11:08:41.929Z,43.25
2018-05-10T11:11:09.462Z,47.35
2018-05-10T11:13:37.188Z,45.63
2018-05-10T11:16:04.698Z,46.22
2018-05-10T11:18:33.011Z,47.15
2018-05-10T11:21:01.346Z,43.10
2018-05-10T11:23:28.864Z,44.47
2018-05-10T11:25:56.418Z,44.67
2018-05-10T11:28:23.966Z,42.88
2018-05-10T11:30:54.031Z,43.38
2018-05-10T11:33:21.630Z,43.70
2018-05-10T11:35:49.081Z,45.55
2018-05-10T11:38:17.354Z,42.13
2018-05-10T11:40:45.630Z,42.13
2018-05-10T11:43:13.942Z,43.03
2018-05-10T11:45:41.502Z,45.60
2018-05-10T11:48:09.021Z,42.85
2018-05-10T11:50:38.640Z,44.22
2018-05-10T11:53:06.929Z,46.15
2018-05-10T11:55:34.521Z,41.63
2018-05-10T11:58:02.039Z,39.25
2018-05-10T12:00:33.876Z,38.78
2018-05-10T12:03:02.107Z,37.78
2018-05-10T12:05:33.958Z,35.38
2018-05-10T12:08:01.458Z,36.58
2018-05-10T12:10:33.929Z,33.78
2018-05-10T12:13:02.281Z,34.20
2018-05-10T12:15:30.178Z,33.45
2018-05-10T12:17:57.701Z,34.25
2018-05-10T12:20:29.976Z,30.42
2018-05-10T12:22:57.604Z,30.75
2018-05-10T12:25:29.751Z,28.55
2018-05-10T12:27:57.252Z,27.75
2018-05-10T12:30:24.855Z,28.92
2018-05-10T12:32:53.124Z,27.33
2018-05-10T12:35:24.619Z,26.65
2018-05-10T12:37:52.923Z,26.77
2018-05-10T12:40:20.421Z,23.20
2018-05-10T12:42:47.942Z,22.60
2018-05-10T12:45:15.470Z,21.75
2018-05-10T12:47:44.516Z,21.23
2018-05-10T12:50:12.430Z,20.48
2018-05-10T13:05:40.686Z,17.30
2018-05-10T13:08:08.202Z,15.82
2018-05-10T13:10:35.762Z,15.13
2018-05-10T13:13:04.224Z,15.60
2018-05-10T13:15:31.811Z,13.73
2018-05-10T13:17:59.306Z,13.82
2018-05-10T13:20:29.121Z,15.77
2018-05-10T13:22:57.403Z,13.27
2018-05-10T13:25:25.714Z,13.73
2018-05-10T13:27:53.396Z,13.07
2018-05-10T13:30:25.493Z,13.25
2018-05-10T13:32:53.242Z,13.43
2018-05-10T13:35:24.903Z,12.48
2018-05-10T13:38:01.072Z,12.95
2018-05-10T13:40:28.589Z,12.57
2018-05-10T13:42:59.930Z,12.90
2018-05-10T13:45:27.991Z,11.95
2018-05-10T13:47:55.541Z,10.75
2018-05-10T13:50:23.814Z,11.07
2018-05-10T13:52:54.562Z,11.38
2018-05-10T13:55:22.094Z,12.05
2018-05-10T13:57:49.632Z,11.88
2018-05-10T14:00:21.179Z,11.20
2018-05-10T14:02:48.718Z,11.38
2018-05-10T14:05:17.066Z,12.18
2018-05-10T14:07:45.377Z,11.25
2018-05-10T14:10:13.321Z,10.98
2018-05-10T14:12:40.852Z,10.40
2018-05-10T14:15:08.378Z,9.98
2018-05-10T14:17:35.896Z,9.07
2018-05-10T14:20:03.453Z,9.45
2018-05-10T14:22:30.926Z,8.57
2018-05-10T14:24:58.441Z,8.55
2018-05-10T14:27:25.954Z,8.23
2018-05-10T14:29:53.494Z,7.85
2018-05-10T14:32:21.050Z,7.32
2018-05-10T14:34:50.046Z,6.43
2018-05-10T14:37:22.029Z,6.65
2018-05-10T14:39:50.226Z,5.90
2018-05-10T14:42:18.550Z,5.60
2018-05-10T14:44:46.825Z,6.20
2018-05-10T14:47:15.878Z,6.15
2018-05-10T14:49:43.418Z,5.97
2018-05-10T14:52:12.506Z,6.18
2018-05-10T14:54:40.100Z,6.18
2018-05-10T14:57:07.658Z,6.40
2018-05-10T14:59:35.158Z,6.60
2018-05-10T15:02:04.396Z,6.00
2018-05-10T15:04:31.900Z,6.32
2018-05-10T15:07:00.941Z,6.40
2018-05-10T15:09:30.294Z,5.90
2018-05-10T15:11:57.797Z,6.15
2018-05-10T15:14:26.798Z,6.53
2018-05-10T15:16:54.359Z,6.37
2018-05-10T15:19:22.457Z,5.53
2018-05-10T15:21:49.972Z,5.60
2018-05-10T15:24:21.330Z,5.00
2018-05-10T15:26:48.923Z,5.37
2018-05-10T15:29:16.522Z,5.10
2018-05-10T15:31:45.201Z,5.20
2018-05-10T15:34:12.803Z,4.85
2018-05-10T15:36:41.299Z,5.05
2018-05-10T15:39:08.915Z,5.40
2018-05-10T15:41:36.420Z,4.90
2018-05-10T15:44:04.648Z,4.87
2018-05-10T15:46:33.703Z,4.93
2018-05-10T15:49:01.240Z,5.18
2018-05-10T15:51:28.763Z,5.07
2018-05-10T15:53:57.187Z,4.55
2018-05-10T15:56:24.703Z,4.80
2018-05-10T15:58:53.574Z,4.82
2018-05-10T16:01:21.098Z,4.25
2018-05-10T16:03:48.621Z,4.12
2018-05-10T16:06:16.916Z,4.07
2018-05-10T16:08:44.701Z,3.65
2018-05-10T16:11:12.223Z,3.58
2018-05-10T16:13:44.610Z,3.00
2018-05-10T16:29:12.178Z,3.08
2018-05-10T16:31:40.755Z,3.00
2018-05-10T16:34:08.318Z,3.50
2018-05-10T16:36:36.578Z,3.40
2018-05-10T16:39:05.009Z,3.65
2018-05-10T16:41:32.522Z,2.87
2018-05-10T16:44:00.083Z,2.85
2018-05-10T16:46:31.419Z,3.25
2018-05-10T16:48:59.791Z,2.97
2018-05-10T16:51:27.520Z,2.87
2018-05-10T16:53:55.082Z,2.67
2018-05-10T16:56:22.604Z,3.05
2018-05-10T16:58:50.134Z,2.30
2018-05-10T17:01:18.446Z,3.10
2018-05-10T17:03:46.019Z,2.80
2018-05-10T17:06:13.575Z,2.47
2018-05-10T17:08:41.074Z,2.72
2018-05-10T17:11:08.590Z,2.75
2018-05-10T17:13:36.110Z,3.30
2018-05-10T17:16:04.404Z,3.28
2018-05-10T17:18:31.975Z,2.70
2018-05-10T17:21:00.266Z,3.05
2018-05-10T17:23:28.394Z,2.87
2018-05-10T17:25:56.670Z,3.03
2018-05-10T17:28:25.013Z,2.85
2018-05-10T17:30:52.516Z,2.60
2018-05-10T17:33:20.805Z,2.70
2018-05-10T17:35:48.329Z,2.90
2018-05-10T17:38:15.870Z,2.67
2018-05-10T17:40:43.394Z,2.50
2018-05-10T17:43:10.905Z,2.75
2018-05-10T17:45:39.204Z,2.55
2018-05-10T17:48:06.758Z,3.05
2018-05-10T17:50:35.032Z,2.75
2018-05-10T17:53:03.317Z,2.78
2018-05-10T17:55:30.814Z,2.90
2018-05-10T17:57:58.357Z,2.62
2018-05-10T18:00:25.976Z,3.28
2018-05-10T18:02:53.575Z,3.12
2018-05-10T18:05:21.138Z,2.70
2018-05-10T18:07:48.686Z,3.30
2018-05-10T18:10:16.226Z,3.20
2018-05-10T18:12:44.503Z,3.35
2018-05-10T18:15:12.786Z,3.25
2018-05-10T18:17:46.119Z,3.50
2018-05-10T18:20:13.633Z,3.90
2018-05-10T18:22:41.926Z,3.35
2018-05-10T18:25:10.700Z,4.10
2018-05-10T18:27:38.991Z,4.00
2018-05-10T18:30:07.984Z,4.20
2018-05-10T18:32:36.277Z,3.58
2018-05-10T18:35:03.949Z,3.95
2018-05-10T18:37:31.625Z,3.85
2018-05-10T18:39:59.129Z,3.95
2018-05-10T18:42:27.418Z,3.95
2018-05-10T18:44:55.701Z,3.90
2018-05-10T18:47:23.986Z,3.80
2018-05-10T18:49:51.569Z,3.47
2018-05-10T18:52:19.088Z,3.35
2018-05-10T18:54:47.423Z,3.70
2018-05-10T18:57:14.892Z,3.58
2018-05-10T18:59:42.425Z,3.37
2018-05-10T19:02:09.953Z,3.30
2018-05-10T19:04:37.475Z,3.17
2018-05-10T19:07:04.973Z,2.72
2018-05-10T19:09:32.515Z,2.53
2018-05-10T19:12:00.829Z,2.78
2018-05-10T19:14:32.639Z,2.80
2018-05-10T19:17:00.145Z,2.50
2018-05-10T19:19:29.443Z,2.65
2018-05-10T19:22:04.707Z,2.60
2018-05-10T19:24:32.735Z,2.70
2018-05-10T19:27:01.042Z,2.70
2018-05-10T19:29:29.418Z,2.45
2018-05-10T19:32:17.577Z,2.70
2018-05-10T19:34:46.093Z,2.50
2018-05-10T19:37:14.128Z,2.50
2018-05-10T19:39:41.671Z,2.50
2018-05-10T19:42:10.491Z,2.50
2018-05-10T19:44:40.135Z,2.67
2018-05-10T19:47:12.436Z,2.80
2018-05-10T19:49:39.945Z,2.78
2018-05-10T19:52:07.465Z,2.80
2018-05-10T19:54:35.075Z,2.90
2018-05-10T19:57:02.669Z,2.83
2018-05-10T19:59:34.122Z,3.00
2018-05-10T20:11:48.459Z,3.08
2018-05-10T20:14:15.987Z,2.90
2018-05-10T20:16:44.498Z,2.85
2018-05-10T20:19:12.791Z,2.95
2018-05-10T20:27:27.531Z,3.00
2018-05-10T20:29:55.098Z,3.33
2018-05-10T20:32:22.672Z,3.50
2018-05-10T20:34:50.287Z,3.25
2018-05-10T20:37:18.079Z,2.97
2018-05-10T20:39:45.674Z,3.05
2018-05-10T20:42:13.218Z,3.20
2018-05-10T20:44:41.614Z,3.20
2018-05-10T20:47:14.009Z,3.30
2018-05-10T20:49:42.894Z,3.90
2018-05-10T20:52:10.430Z,3.37
2018-05-10T20:54:38.669Z,3.55
2018-05-10T20:57:06.272Z,3.20
2018-05-10T20:59:34.277Z,3.20
2018-05-10T21:02:01.799Z,3.37
2018-05-10T21:04:29.305Z,3.62
2018-05-10T21:06:56.818Z,3.30
2018-05-10T21:09:24.848Z,3.55
2018-05-10T21:11:52.392Z,3.40
2018-05-10T21:14:19.946Z,3.50
2018-05-10T21:16:47.465Z,3.35
2018-05-10T21:19:14.982Z,3.70
2018-05-10T21:21:46.388Z,3.12
2018-05-10T21:24:13.910Z,3.83
2018-05-10T21:26:42.212Z,3.37
2018-05-10T21:29:10.509Z,3.87
2018-05-10T21:31:42.706Z,4.03
2018-05-10T21:34:10.479Z,3.72
2018-05-10T21:36:38.273Z,4.30
2018-05-10T21:39:06.553Z,4.43
2018-05-10T21:41:34.835Z,4.75
2018-05-10T21:44:03.878Z,5.07
2018-05-10T21:46:32.271Z,5.32
2018-05-10T21:48:59.836Z,4.70
2018-05-10T21:51:28.297Z,4.62
2018-05-10T21:53:55.836Z,4.87
2018-05-10T21:56:23.361Z,4.80
2018-05-10T21:58:51.674Z,4.87
2018-05-10T22:01:19.240Z,4.45
2018-05-10T22:03:47.618Z,4.82
2018-05-10T22:06:16.502Z,4.40
2018-05-10T22:08:45.323Z,4.43
2018-05-10T22:11:12.814Z,4.68
2018-05-10T22:13:41.153Z,4.60
2018-05-10T22:16:09.703Z,5.32
2018-05-10T22:18:37.372Z,5.40
2018-05-10T22:21:05.045Z,4.75
2018-05-10T22:23:32.569Z,5.20
2018-05-10T22:26:01.419Z,5.57
2018-05-10T22:28:29.970Z,5.68
2018-05-10T22:31:01.291Z,5.40
2018-05-10T22:33:29.796Z,6.30
2018-05-10T22:35:57.342Z,6.20
2018-05-10T22:38:25.158Z,5.87
2018-05-10T22:40:52.658Z,5.75
2018-05-10T22:43:20.179Z,5.57
2018-05-10T22:45:47.706Z,5.82
2018-05-10T22:48:15.228Z,5.90
2018-05-10T22:50:44.132Z,5.90
2018-05-10T22:53:11.626Z,6.03
2018-05-10T22:55:39.162Z,6.07
2018-05-10T22:58:06.674Z,5.97
2018-05-10T23:00:34.334Z,5.57
2018-05-10T23:03:01.926Z,5.43
2018-05-10T23:05:32.018Z,6.10
2018-05-10T23:08:00.368Z,5.68
2018-05-10T23:10:28.218Z,6.32
2018-05-10T23:12:59.917Z,6.03
2018-05-10T23:15:27.349Z,5.95
2018-05-10T23:17:54.852Z,6.28
2018-05-10T23:20:23.134Z,6.10
2018-05-10T23:22:51.609Z,5.85
2018-05-10T23:25:19.910Z,6.00
2018-05-10T23:27:47.437Z,6.65
2018-05-10T23:30:14.962Z,6.43
2018-05-10T23:32:42.457Z,6.32
2018-05-10T23:35:11.367Z,6.50
2018-05-10T23:37:39.675Z,6.20
2018-05-10T23:40:07.191Z,6.25
2018-05-10T23:42:35.464Z,6.10
2018-05-10T23:45:04.489Z,6.22
2018-05-10T23:47:32.395Z,6.20
2018-05-10T23:49:59.926Z,6.45
2018-05-10T23:52:27.438Z,5.90
2018-05-10T23:54:55.055Z,6.07
2018-05-10T23:57:22.553Z,6.20
2018-05-10T23:59:50.058Z,6.50
